Gulf - Magdalen: Past 24 Hour Conditions

 

Cartwright Airport

11:00 AM AST 19 November 2018
Disclaimer

This table is a summary of hourly weather conditions for the past 24 hours.
Please note that these observations might not always be representative of weather conditions over their associated marine area.

Date / Time
(AST)
Wind(knots) Conditions Visibility(km) Pressure(kPa) Air tempC) Relative humidity(%) Dew pointC) Wind Chill
19 November 2018
11:00 SW 11 gust 20 Sunny 16 101.5 -12 61 -18 -20
10:00 SW 14 gust 25 Sunny 16 101.6 -12 62 -18 -21
9:00 WSW 17 gust 23 Sunny 16 101.6 -12 62 -18 -22
8:00 SW 15 gust 27 Sunny 16 101.6 -13 66 -18 -23
7:00 WSW 11 gust 18 Mostly Cloudy 16 101.6 -12 67 -17 -20
6:00 SW 11 gust 20 Mostly Cloudy 16 101.6 -11 70 -16 -20
5:00 WSW 13 gust 24 Mainly Clear 16 101.6 -11 71 -15 -20
4:00 WSW 14 gust 21 Mostly Cloudy 16 101.6 -10 72 -15 -19
3:00 W 13 gust 21 Cloudy 16 101.6 -9 67 -15 -18
2:00 W 11 gust 19 Mostly Cloudy 16 101.6 -9 72 -14 -17
1:00 W 14 gust 21 Clear 16 101.6 -9 66 -15 -18
0:00 W 14 gust 22 Clear 16 101.6 -10 67 -15 -18
18 November 2018
23:00 W 17 gust 23 Clear 16 101.5 -9 64 -15 -19
22:00 W 13 gust 21 Clear 16 101.5 -9 66 -14 -17
21:00 W 15 gust 26 Clear 16 101.4 -9 66 -14 -18
20:00 W 15 gust 25 Clear 16 101.4 -9 68 -14 -18
19:00 W 17 gust 23 Mostly Cloudy 16 101.4 -9 68 -14 -19
18:00 W 14 gust 24 Cloudy 16 101.3 -9 70 -13 -17
17:00 W 15 gust 23 Cloudy 16 101.2 -8 68 -13 -17
16:00 W 10 gust 19 Light Snow 16 101.1 -7 73 -11 -14
15:00 W 10 gust 16 Light Snow 16 101.0 -7 71 -11 -13
14:00 W 14 gust 22 Light Snow 16 100.9 -6 70 -11 -14
13:00 WNW 9 gust 15 Light Snow 16 100.8 -5 73 -9 -11
12:00 WNW 10 gust 15 Light Snow 16 100.7 -5 75 -9 -11
11:00 W 6 Light Snow 16 100.7 -5 82 -8 -10

Zoom-in to make a selection

Map of Atlantic - Newfoundland marine weather areas Banquereau - 44139 Blanc-Sablon Airport Cap Whittle Chevery Natashquan Airport Heath Point Îles de la Madeleine Airport Miscou Island Eskasoni (First Nations) Grand Étang Ingonish Beach North Mountain St.Paul Island J.A. Douglas McCurdy Sydney Airport Charlottetown Airport East Point North Cape Argentia Bonavista Burgeo Cape Race Corner Brook Daniel's Harbour Englee Ferolle Point La Scie Port aux Basques Rocky Harbour Sagona Island St. Anthony Airport St. John's Int'l Airport St. Lawrence Stephenville Airport Twillingate Winterland Wreckhouse Grates Cove Pool's Island Marticot Island Long Pond Cartwright Airport Mary's Harbour
Legend:
buoy Buoy
land station Land Station

Atlantic - Newfoundland Area

Another Region

What we are doing

Date modified: